Greenfield, MA

9:47 PM EST on December 28, 2014 (GMT -0500)
Westover Air Reserve Base / Metropolitan Airport | Change Station
CLOSE
Current Station
Airport
Location: Chicopee,
Elevation: 246 ft
Nearby Weather Stations

Elev 246 ft 42.19 °N, 72.53 °W | Updated 49 minutes ago

Overcast
Overcast
37 °F
Feels Like 30 °F
N
10
Wind Variable Wind from WNW

Today
High -- | Low -- °F
--% Chance of Precip.
Yesterday
High -- | Low -- °F
Precip. -- in
7:19 AM 4:24 PM
First Quarter, 54% visible
Pressure 30.01 in
Visibility 10.0 miles
Clouds Scattered Clouds 17000 ft
Windchill 30 °F
Dew Point 25 °F
Humidity 62%
Rainfall 0.05 in
Snow Depth Not available.
UV 0 out of 12
Pollen .10 out of 12
Air Quality Not available.
Flu Activity Not available.
METAR KCEF 290158Z AUTO 30009KT 10SM SCT170 03/M04 A2998 RMK AO2 SLP160 T00301037

More Conditions Fewer Conditions

Pressure 30.01 in
Visibility 10.0 miles
Clouds Scattered Clouds 17000 ft
Windchill 30 °F
Dew Point 25 °F
Humidity 62%
Rainfall 0.05 in
Snow Depth Not available.
UV 0 out of 12
Pollen .10 out of 12
Air Quality Not available.
Flu Activity Not available.
METAR KCEF 290158Z AUTO 30009KT 10SM SCT170 03/M04 A2998 RMK AO2 SLP160 T00301037

More Conditions Fewer Conditions

10-Day Weather Forecast

Almanac

Astronomy

Dec. 28, 2014 Rise Set
Actual Time
Civil Twilight
Nautical Twilight
Astronomical Twilight
Moon
Length of Visible Light
Length of Day
Tomorrow will be .
, % of the Moon is Illuminated

Today's Extremes

State Highs State Lows

Community

WunderPhotos

Upload Photos

1,781,504 photos uploaded!

WunderBlogs® & News

Nearby

Air Quality

  Air Quality AQ Index Pollutant
Not available.

Snow Depth

Station Depth Elevation

Earthquake Activity

City Distance Mag. Time & Date
Minimum magnitude displayed is 2.5.

Coastal Water Temperatures

Place Temperature

Nearby Weather Stations